KALW/ALW METAR and TAF weather

Enter ICAO airport designator
Station Type Date Time Source
KALW METAR 2019/06/26 20:04 UTC NOAA

KALW 262004Z 21016G26KT 10SM VCTS -RA FEW070 BKN090 OVC110 22/11 A2977 RMK AO2 PK WND 20026/1954 WSHFT 1950 LTG DSNT SW AND W RAB00 P0000 T02170111


Station Type Date Time Source
KALW Decoded METAR 2019/06/26 20:04 UTC NOAA

WALLA WALLA REGIONAL AIRPORT, WA, United States (KALW) 46-06N 118-17W 363M
Jun 26, 2019 - 04:04 PM EDT / 2019.06.26 2004 UTC
Wind: from the SSW (210 degrees) at 18 MPH (16 KT) gusting to 30 MPH (26 KT):0
Visibility: 10 mile(s):0
Sky conditions: overcast
Weather: thunder in the vicinity; light rain; Lightning observed
Precipitation last hour: A trace
Temperature: 71.1 F (21.7 C)
Dew Point: 52.0 F (11.1 C)
Relative Humidity: 50%
Pressure (altimeter): 29.77 in. Hg (1008 hPa)
ob: KALW 262004Z 21016G26KT 10SM VCTS -RA FEW070 BKN090 OVC110 22/11 A2977 RMK AO2 PK WND 20026/1954 WSHFT 1950 LTG DSNT SW AND W RAB00 P0000 T02170111
cycle: 20

Station Type Date Time Source
KALW TAF 2019/06/26 20:06 UTC NOAA

TAF
AMD KALW 262003Z 2620/2718 20012G20KT P6SM VCTS SCT060CB BKN080
FM270300 15008G15KT P6SM VCTS BKN050CB OVC070
FM270600 18006KT P6SM BKN050
FM271000 18007KT P6SM SCT100 BKN250

Example: see airport list